createdAt,value
2019-03-18T00:00:54.811Z,1.70
2019-03-18T00:03:22.784Z,1.40
2019-03-18T00:05:50.763Z,1.02
2019-03-18T00:08:18.722Z,1.20
2019-03-18T00:10:46.687Z,1.02
2019-03-18T00:13:14.654Z,1.00
2019-03-18T00:15:42.624Z,1.20
2019-03-18T00:18:10.591Z,1.20
2019-03-18T00:20:38.556Z,1.30
2019-03-18T00:23:06.539Z,1.30
2019-03-18T00:25:34.500Z,1.40
2019-03-18T00:28:02.462Z,1.60
2019-03-18T00:30:30.441Z,1.30
2019-03-18T00:32:58.410Z,1.32
2019-03-18T00:35:26.384Z,1.25
2019-03-18T00:37:54.353Z,1.20
2019-03-18T00:40:22.342Z,1.50
2019-03-18T00:42:50.288Z,1.47
2019-03-18T00:45:18.252Z,1.80
2019-03-18T00:47:46.256Z,1.42
2019-03-18T00:50:14.467Z,1.57
2019-03-18T00:52:42.429Z,1.80
2019-03-18T00:55:10.400Z,1.70
2019-03-18T00:57:38.367Z,2.05
2019-03-18T01:00:07.992Z,1.80
2019-03-18T01:02:35.948Z,2.12
2019-03-18T01:05:04.580Z,1.98
2019-03-18T01:07:32.557Z,1.90
2019-03-18T01:10:00.607Z,1.92
2019-03-18T01:12:28.576Z,2.00
2019-03-18T01:14:56.536Z,1.80
2019-03-18T01:17:24.523Z,1.85
2019-03-18T01:19:52.500Z,1.87
2019-03-18T01:22:20.474Z,1.92
2019-03-18T01:24:48.438Z,1.50
2019-03-18T01:27:16.396Z,1.60
2019-03-18T01:29:44.382Z,1.67
2019-03-18T01:32:12.328Z,1.62
2019-03-18T01:34:40.324Z,1.40
2019-03-18T01:37:08.280Z,1.90
2019-03-18T01:39:36.238Z,2.05
2019-03-18T01:42:04.211Z,2.67
2019-03-18T01:44:32.205Z,2.37
2019-03-18T01:47:00.171Z,2.50
2019-03-18T01:49:28.152Z,2.42
2019-03-18T01:51:56.111Z,3.33
2019-03-18T01:54:24.079Z,2.87
2019-03-18T01:56:52.051Z,3.47
2019-03-18T01:59:20.025Z,2.98
2019-03-18T02:01:47.993Z,3.30
2019-03-18T02:04:15.970Z,2.85
2019-03-18T02:06:43.943Z,3.08
2019-03-18T02:09:11.908Z,3.75
2019-03-18T02:11:39.988Z,2.83
2019-03-18T02:14:07.914Z,3.17
2019-03-18T02:16:35.888Z,3.30
2019-03-18T02:19:03.845Z,3.15
2019-03-18T02:21:31.815Z,2.98
2019-03-18T02:23:59.777Z,3.10
2019-03-18T02:26:27.752Z,3.22
2019-03-18T02:28:55.728Z,3.12
2019-03-18T02:31:23.689Z,4.60
2019-03-18T02:33:51.684Z,5.30
2019-03-18T02:36:19.641Z,4.70
2019-03-18T02:38:47.601Z,6.03
2019-03-18T02:41:15.569Z,5.95
2019-03-18T02:43:43.545Z,4.92
2019-03-18T02:46:11.523Z,4.87
2019-03-18T02:48:39.499Z,4.37
2019-03-18T02:51:07.537Z,4.33
2019-03-18T02:53:35.515Z,4.00
2019-03-18T02:56:03.470Z,4.97
2019-03-18T02:58:31.437Z,4.78
2019-03-18T03:00:59.874Z,4.20
2019-03-18T03:03:27.827Z,4.17
2019-03-18T03:05:55.799Z,3.92
2019-03-18T03:08:23.755Z,4.47
2019-03-18T03:10:51.718Z,3.75
2019-03-18T03:13:19.691Z,4.30
2019-03-18T03:15:47.719Z,4.00
2019-03-18T03:18:15.792Z,3.58
2019-03-18T03:20:43.752Z,4.10
2019-03-18T03:23:11.721Z,4.37
2019-03-18T03:25:41.312Z,4.47
2019-03-18T03:28:09.361Z,5.47
2019-03-18T03:30:38.599Z,4.90
2019-03-18T03:33:09.653Z,4.25
2019-03-18T03:35:37.616Z,4.87
2019-03-18T03:38:05.617Z,4.90
2019-03-18T03:40:33.571Z,4.08
2019-03-18T03:43:01.539Z,4.97
2019-03-18T03:45:29.508Z,4.85
2019-03-18T03:47:57.582Z,5.37
2019-03-18T03:50:25.544Z,5.12
2019-03-18T03:52:53.503Z,5.40
2019-03-18T03:55:21.502Z,6.42
2019-03-18T03:57:49.489Z,7.50
2019-03-18T04:00:17.524Z,7.12
2019-03-18T04:02:45.500Z,5.65
2019-03-18T04:05:13.475Z,5.90
2019-03-18T04:07:41.450Z,6.75
2019-03-18T04:10:10.186Z,7.05
2019-03-18T04:12:38.160Z,6.80
2019-03-18T04:15:07.529Z,7.30
2019-03-18T04:17:35.500Z,7.08
2019-03-18T04:20:04.141Z,6.72
2019-03-18T04:22:32.105Z,7.22
2019-03-18T04:25:00.502Z,6.03
2019-03-18T04:27:28.691Z,6.17
2019-03-18T04:29:56.644Z,6.15
2019-03-18T04:32:24.629Z,6.40
2019-03-18T04:34:52.595Z,6.83
2019-03-18T04:37:20.560Z,6.90
2019-03-18T04:39:48.539Z,6.67
2019-03-18T04:42:16.504Z,6.67
2019-03-18T04:44:44.481Z,7.25
2019-03-18T04:47:14.506Z,7.25
2019-03-18T04:49:42.295Z,7.27
2019-03-18T04:52:10.256Z,7.45
2019-03-18T04:54:38.223Z,8.23
2019-03-18T04:57:06.208Z,7.85
2019-03-18T04:59:34.173Z,7.97
2019-03-18T05:02:02.140Z,7.15
2019-03-18T05:04:34.439Z,7.83
2019-03-18T05:07:02.567Z,7.47
2019-03-18T05:09:30.552Z,7.95
2019-03-18T05:11:58.536Z,6.87
2019-03-18T05:14:26.500Z,7.55
2019-03-18T05:16:54.520Z,7.87
2019-03-18T05:19:22.479Z,7.25
2019-03-18T05:21:50.526Z,7.20
2019-03-18T05:24:18.491Z,7.17
2019-03-18T05:26:46.480Z,7.45
2019-03-18T05:29:14.451Z,7.70
2019-03-18T05:31:42.416Z,7.15
2019-03-18T05:34:10.399Z,7.65
2019-03-18T05:36:38.374Z,6.95
2019-03-18T05:39:06.350Z,7.42
2019-03-18T05:41:34.311Z,6.75
2019-03-18T05:44:02.381Z,7.25
2019-03-18T05:46:30.341Z,6.35
2019-03-18T05:48:58.312Z,6.72
2019-03-18T05:51:26.303Z,6.33
2019-03-18T05:53:54.280Z,6.65
2019-03-18T05:56:22.243Z,6.50
2019-03-18T05:58:50.364Z,6.70
2019-03-18T06:01:18.331Z,6.72
2019-03-18T06:03:46.291Z,7.10
2019-03-18T06:06:14.268Z,6.78
2019-03-18T06:08:42.232Z,5.90
2019-03-18T06:11:10.194Z,6.58
2019-03-18T06:13:38.178Z,6.20
2019-03-18T06:16:06.150Z,6.62
2019-03-18T06:18:34.112Z,5.00
2019-03-18T06:21:02.080Z,5.40
2019-03-18T06:23:30.080Z,5.37
2019-03-18T06:25:58.057Z,5.40
2019-03-18T06:28:26.015Z,5.75
2019-03-18T06:30:53.993Z,5.42
2019-03-18T06:33:21.977Z,5.12
2019-03-18T06:35:50.017Z,5.15
2019-03-18T06:38:17.988Z,5.53
2019-03-18T06:40:45.951Z,5.55
2019-03-18T06:43:13.931Z,5.70
2019-03-18T06:45:41.896Z,5.62
2019-03-18T06:48:09.859Z,6.33
2019-03-18T06:50:37.857Z,6.10
2019-03-18T06:53:05.832Z,6.17
2019-03-18T06:55:33.808Z,5.60
2019-03-18T06:58:01.803Z,5.67
2019-03-18T07:00:29.788Z,5.75
2019-03-18T07:02:57.752Z,5.20
2019-03-18T07:05:25.728Z,4.80
2019-03-18T07:07:53.687Z,5.45
2019-03-18T07:10:21.655Z,4.80
2019-03-18T07:12:49.621Z,4.95
2019-03-18T07:15:17.595Z,4.12
2019-03-18T07:17:45.568Z,4.90
2019-03-18T07:20:13.812Z,4.40
2019-03-18T07:22:41.771Z,3.77
2019-03-18T07:25:09.743Z,3.70
2019-03-18T07:27:37.732Z,3.55
2019-03-18T07:30:09.454Z,2.50
2019-03-18T07:32:37.445Z,3.00
2019-03-18T07:35:05.587Z,2.85
2019-03-18T07:37:33.564Z,3.10
2019-03-18T07:40:01.544Z,2.95
2019-03-18T07:42:29.528Z,3.02
2019-03-18T07:44:57.495Z,2.47
2019-03-18T07:47:25.472Z,3.20
2019-03-18T07:49:53.484Z,3.47
2019-03-18T07:52:21.989Z,3.05
2019-03-18T07:54:50.118Z,3.50
2019-03-18T07:57:18.072Z,3.72
2019-03-18T07:59:46.043Z,3.33
2019-03-18T08:02:14.002Z,3.05
2019-03-18T08:04:41.992Z,3.33
2019-03-18T08:07:09.949Z,3.60
2019-03-18T08:09:37.924Z,3.40
2019-03-18T08:12:05.911Z,3.10
2019-03-18T08:14:33.916Z,4.42
2019-03-18T08:17:01.899Z,3.87
2019-03-18T08:19:29.856Z,3.45
2019-03-18T08:21:57.816Z,3.40
2019-03-18T08:24:25.793Z,4.28
2019-03-18T08:26:53.766Z,3.40
2019-03-18T08:29:21.740Z,3.58
2019-03-18T08:31:49.703Z,3.30
2019-03-18T08:34:17.662Z,3.58
2019-03-18T08:36:45.659Z,3.67
2019-03-18T08:39:13.615Z,3.52
2019-03-18T08:41:41.888Z,3.70
2019-03-18T08:44:12.537Z,3.92
2019-03-18T08:49:07.844Z,2.80
2019-03-18T08:51:35.851Z,2.33
2019-03-18T08:54:03.995Z,2.22
2019-03-18T08:56:32.002Z,2.60
2019-03-18T08:59:00.002Z,2.70
2019-03-18T09:01:28.153Z,2.67
2019-03-18T09:03:56.157Z,2.50
2019-03-18T09:06:24.142Z,2.90
2019-03-18T09:08:52.115Z,3.47
2019-03-18T09:11:20.077Z,3.37
2019-03-18T09:13:48.048Z,3.17
2019-03-18T09:16:19.179Z,3.50
2019-03-18T09:18:47.160Z,2.72
2019-03-18T09:21:15.284Z,2.77
2019-03-18T09:23:43.261Z,2.65
2019-03-18T09:26:11.232Z,2.58
2019-03-18T09:28:39.219Z,2.50
2019-03-18T09:31:07.201Z,2.22
2019-03-18T09:33:35.159Z,2.70
2019-03-18T09:36:03.131Z,2.05
2019-03-18T09:38:31.096Z,2.27
2019-03-18T09:40:59.093Z,2.47
2019-03-18T09:43:27.060Z,3.10
2019-03-18T09:45:55.023Z,2.80
2019-03-18T09:48:23.010Z,2.77
2019-03-18T09:50:51.019Z,2.70
2019-03-18T09:53:19.022Z,3.12
2019-03-18T09:55:46.994Z,3.25
2019-03-18T09:58:14.991Z,2.50
2019-03-18T10:00:42.956Z,2.72
2019-03-18T10:03:10.972Z,2.90
2019-03-18T10:05:38.963Z,2.58
2019-03-18T10:08:06.937Z,2.60
2019-03-18T10:10:34.964Z,2.70
2019-03-18T10:13:02.946Z,1.98
2019-03-18T10:15:30.936Z,2.10
2019-03-18T10:17:59.017Z,2.27
2019-03-18T10:20:26.993Z,2.20
2019-03-18T10:22:54.974Z,2.50
2019-03-18T10:25:22.992Z,1.85
2019-03-18T10:27:50.979Z,2.27
2019-03-18T10:30:18.935Z,2.47
2019-03-18T10:32:46.943Z,2.30
2019-03-18T10:35:15.867Z,2.55
2019-03-18T10:37:43.820Z,2.50
2019-03-18T10:40:12.368Z,2.70
2019-03-18T10:42:40.331Z,2.62
2019-03-18T10:45:09.079Z,2.33
2019-03-18T10:47:37.048Z,2.33
2019-03-18T10:50:06.962Z,3.05
2019-03-18T10:52:35.034Z,2.70
2019-03-18T10:55:03.067Z,2.90
2019-03-18T10:57:31.017Z,2.90
2019-03-18T11:00:01.137Z,3.25
2019-03-18T11:02:28.688Z,2.90
2019-03-18T11:04:56.655Z,2.92
2019-03-18T11:07:24.630Z,3.12
2019-03-18T11:09:52.595Z,2.20
2019-03-18T11:12:20.649Z,2.40
2019-03-18T11:14:48.599Z,2.62
2019-03-18T11:17:16.592Z,2.30
2019-03-18T11:19:44.540Z,2.60
2019-03-18T11:22:12.575Z,2.90
2019-03-18T11:24:40.556Z,2.55
2019-03-18T11:27:08.508Z,2.95
2019-03-18T11:29:36.486Z,2.62
2019-03-18T11:32:04.472Z,2.40
2019-03-18T11:34:32.468Z,1.82
2019-03-18T11:37:00.429Z,1.77
2019-03-18T11:39:28.461Z,1.80
2019-03-18T11:41:56.491Z,1.70
2019-03-18T11:44:24.463Z,1.50
2019-03-18T11:46:52.450Z,1.42
2019-03-18T11:49:20.409Z,1.75
2019-03-18T11:51:48.380Z,1.98
2019-03-18T11:54:16.413Z,1.87
2019-03-18T11:56:44.520Z,1.37
2019-03-18T11:59:12.522Z,1.42
2019-03-18T12:01:40.553Z,1.60
2019-03-18T12:04:08.508Z,1.70
2019-03-18T12:06:36.525Z,2.22
2019-03-18T12:09:05.280Z,1.40
2019-03-18T12:11:33.299Z,1.77
2019-03-18T12:14:01.271Z,1.40
2019-03-18T12:16:29.243Z,0.90
2019-03-18T12:18:57.312Z,1.07
2019-03-18T12:21:26.050Z,1.55
2019-03-18T12:23:54.007Z,1.17
2019-03-18T12:26:22.451Z,1.15
2019-03-18T12:28:50.416Z,1.20
2019-03-18T12:31:18.387Z,1.05
2019-03-18T12:33:46.347Z,1.20
2019-03-18T12:36:14.495Z,1.10
2019-03-18T12:38:42.466Z,1.60
2019-03-18T12:41:10.549Z,1.40
2019-03-18T12:43:38.520Z,1.70
2019-03-18T12:46:06.548Z,1.70
2019-03-18T12:48:34.546Z,1.37
2019-03-18T12:51:02.505Z,1.75
2019-03-18T12:53:30.460Z,1.92
2019-03-18T12:55:58.448Z,1.72
2019-03-18T12:58:26.454Z,1.42
2019-03-18T13:00:54.433Z,2.10
2019-03-18T13:03:22.391Z,2.22
2019-03-18T13:05:50.365Z,1.30
2019-03-18T13:08:18.336Z,1.00
2019-03-18T13:10:46.300Z,1.10
2019-03-18T13:13:14.345Z,1.00
2019-03-18T13:15:42.338Z,2.02
2019-03-18T13:18:10.309Z,1.12
2019-03-18T13:20:38.271Z,1.40
2019-03-18T13:23:06.281Z,1.30
2019-03-18T13:25:34.291Z,1.85
2019-03-18T13:28:02.259Z,1.50
2019-03-18T13:30:30.219Z,1.60
2019-03-18T13:32:58.231Z,1.20
2019-03-18T13:35:26.193Z,1.22
2019-03-18T13:37:54.183Z,1.17
2019-03-18T13:40:22.153Z,1.27
2019-03-18T13:42:50.160Z,1.20
2019-03-18T13:45:19.843Z,1.40
2019-03-18T13:47:47.903Z,1.30
2019-03-18T13:50:17.492Z,1.70
2019-03-18T13:52:45.466Z,1.32
2019-03-18T13:55:13.423Z,1.22
2019-03-18T13:57:41.392Z,1.50
2019-03-18T14:00:18.881Z,1.22
2019-03-18T14:02:46.927Z,1.27
2019-03-18T14:05:14.905Z,1.30
2019-03-18T14:07:42.875Z,1.60
2019-03-18T14:10:12.455Z,1.47
2019-03-18T14:12:40.428Z,1.00
2019-03-18T14:15:10.368Z,1.07
2019-03-18T14:17:38.349Z,0.90
2019-03-18T14:20:07.943Z,1.15
2019-03-18T14:22:35.943Z,1.20
2019-03-18T14:25:04.182Z,1.20
2019-03-18T14:27:32.157Z,1.17
2019-03-18T14:30:00.366Z,1.57
2019-03-18T14:32:28.465Z,1.47
2019-03-18T14:34:56.421Z,1.47
2019-03-18T14:37:24.485Z,1.10
2019-03-18T14:39:52.447Z,1.42
2019-03-18T14:42:20.401Z,1.30
2019-03-18T14:44:48.379Z,1.47
2019-03-18T14:47:16.348Z,1.80
2019-03-18T14:49:46.324Z,0.90
2019-03-18T14:52:14.015Z,1.27
2019-03-18T14:54:41.987Z,0.90
2019-03-18T14:57:09.954Z,1.30
2019-03-18T14:59:37.946Z,1.10
2019-03-18T15:02:05.950Z,1.17
2019-03-18T15:04:33.916Z,1.12
2019-03-18T15:07:01.889Z,1.22
2019-03-18T15:09:29.858Z,1.22
2019-03-18T15:11:57.814Z,1.40
2019-03-18T15:14:25.795Z,1.30
2019-03-18T15:16:53.757Z,1.42
2019-03-18T15:19:21.874Z,1.45
2019-03-18T15:21:58.331Z,1.52
2019-03-18T15:24:20.218Z,1.42
2019-03-18T15:26:48.219Z,1.30
2019-03-18T15:29:16.185Z,1.17
2019-03-18T15:31:44.164Z,1.52
2019-03-18T15:34:12.132Z,1.47
2019-03-18T15:36:40.153Z,1.20
2019-03-18T15:39:08.133Z,1.62
2019-03-18T15:41:36.248Z,1.20
2019-03-18T15:44:04.208Z,1.20
2019-03-18T15:46:32.177Z,1.30
2019-03-18T15:49:00.151Z,1.17
2019-03-18T15:51:28.150Z,1.30
2019-03-18T15:53:56.156Z,1.22
2019-03-18T15:56:24.117Z,1.12
2019-03-18T15:58:52.084Z,0.98
2019-03-18T16:01:20.077Z,1.10
2019-03-18T16:03:48.047Z,0.90
2019-03-18T16:06:16.012Z,1.20
2019-03-18T16:08:43.996Z,1.20
2019-03-18T16:11:12.127Z,1.10
2019-03-18T16:13:40.135Z,1.20
2019-03-18T16:16:08.128Z,1.27
2019-03-18T16:18:36.095Z,1.65
2019-03-18T16:21:04.093Z,1.40
2019-03-18T16:23:32.040Z,1.35
2019-03-18T16:26:00.018Z,1.30
2019-03-18T16:28:28.000Z,1.67
2019-03-18T16:30:56.005Z,1.50
2019-03-18T16:33:23.962Z,1.30
2019-03-18T16:35:51.928Z,2.12
2019-03-18T16:38:19.905Z,1.67
2019-03-18T16:40:47.860Z,1.92
2019-03-18T16:43:15.831Z,1.95
2019-03-18T16:45:43.795Z,1.67
2019-03-18T16:48:11.783Z,1.60
2019-03-18T16:50:39.898Z,1.85
2019-03-18T16:53:07.884Z,1.98
2019-03-18T16:55:35.923Z,1.75
2019-03-18T16:58:03.907Z,2.08
2019-03-18T17:00:31.887Z,1.57
2019-03-18T17:02:59.866Z,1.70
2019-03-18T17:05:27.903Z,1.67
2019-03-18T17:07:55.883Z,1.80
2019-03-18T17:10:23.878Z,1.80
2019-03-18T17:12:51.845Z,1.80
2019-03-18T17:15:20.193Z,1.92
2019-03-18T17:17:48.152Z,2.00
2019-03-18T17:20:16.292Z,1.85
2019-03-18T17:22:49.398Z,1.72
2019-03-18T17:25:15.595Z,1.60
2019-03-18T17:27:43.573Z,2.00
2019-03-18T17:30:15.077Z,2.12
2019-03-18T17:32:43.066Z,2.15
2019-03-18T17:35:11.028Z,1.85
2019-03-18T17:37:39.099Z,1.98
2019-03-18T17:40:11.770Z,2.08
2019-03-18T17:42:39.741Z,1.90
2019-03-18T17:45:09.090Z,1.75
2019-03-18T17:47:37.055Z,1.72
2019-03-18T17:50:12.331Z,1.55
2019-03-18T17:52:40.290Z,2.05
2019-03-18T17:55:08.290Z,1.72
2019-03-18T17:57:36.257Z,2.22
2019-03-18T18:00:06.096Z,1.85
2019-03-18T18:02:34.093Z,1.85
2019-03-18T18:05:03.056Z,1.92
2019-03-18T18:07:31.897Z,2.13
2019-03-18T18:10:00.729Z,2.40
2019-03-18T18:12:28.798Z,1.90
2019-03-18T18:14:58.990Z,2.40
2019-03-18T18:17:26.467Z,2.30
2019-03-18T18:19:54.435Z,2.10
2019-03-18T18:22:22.409Z,1.85
2019-03-18T18:24:50.366Z,2.02
2019-03-18T18:27:19.253Z,2.05
2019-03-18T18:29:47.280Z,1.95
2019-03-18T18:32:15.238Z,1.92
2019-03-18T18:34:43.204Z,1.98
2019-03-18T18:37:11.180Z,2.00
2019-03-18T18:39:39.155Z,2.45
2019-03-18T18:42:07.182Z,2.20
2019-03-18T18:44:35.179Z,2.47
2019-03-18T18:47:03.146Z,2.62
2019-03-18T18:49:31.128Z,2.52
2019-03-18T18:51:59.090Z,2.37
2019-03-18T18:54:27.065Z,2.05
2019-03-18T18:56:55.023Z,2.25
2019-03-18T18:59:22.983Z,2.10
2019-03-18T19:01:51.004Z,2.25
2019-03-18T19:04:20.604Z,2.05
2019-03-18T19:06:48.656Z,1.90
2019-03-18T19:09:16.870Z,2.45
2019-03-18T19:11:45.175Z,2.58
2019-03-18T19:14:13.181Z,2.25
2019-03-18T19:16:41.409Z,2.70
2019-03-18T19:19:09.500Z,2.47
2019-03-18T19:21:37.491Z,2.42
2019-03-18T19:24:05.454Z,2.50
2019-03-18T19:26:33.456Z,2.42
2019-03-18T19:29:01.427Z,2.12
2019-03-18T19:31:29.400Z,2.40
2019-03-18T19:33:57.365Z,2.70
2019-03-18T19:36:25.353Z,2.77
2019-03-18T19:38:53.307Z,2.90
2019-03-18T19:41:23.945Z,2.30
2019-03-18T19:46:19.312Z,3.00
2019-03-18T19:48:47.281Z,2.75
2019-03-18T19:51:15.260Z,2.92
2019-03-18T19:53:49.175Z,3.35
2019-03-18T19:56:12.921Z,2.93
2019-03-18T19:58:41.000Z,3.08
2019-03-18T20:01:08.963Z,3.45
2019-03-18T20:03:37.832Z,3.80
2019-03-18T20:06:05.967Z,3.00
2019-03-18T20:08:33.988Z,3.10
2019-03-18T20:11:01.989Z,2.72
2019-03-18T20:13:30.030Z,3.33
2019-03-18T20:15:58.034Z,3.75
2019-03-18T20:18:25.991Z,3.60
2019-03-18T20:20:56.759Z,3.30
2019-03-18T20:23:23.781Z,3.90
2019-03-18T20:25:51.753Z,4.22
2019-03-18T20:28:19.715Z,3.80
2019-03-18T20:30:47.688Z,3.45
2019-03-18T20:33:15.651Z,3.80
2019-03-18T20:35:43.620Z,3.37
2019-03-18T20:38:11.579Z,4.12
2019-03-18T20:40:39.564Z,3.65
2019-03-18T20:43:07.516Z,3.60
2019-03-18T20:45:35.480Z,3.72
2019-03-18T20:48:03.455Z,3.85
2019-03-18T20:50:31.424Z,4.60
2019-03-18T20:52:59.401Z,4.03
2019-03-18T20:55:27.375Z,3.98
2019-03-18T20:57:55.331Z,4.08
2019-03-18T21:00:23.470Z,3.47
2019-03-18T21:02:51.442Z,3.87
2019-03-18T21:05:19.453Z,4.78
2019-03-18T21:07:47.424Z,4.20
2019-03-18T21:10:15.964Z,3.85
2019-03-18T21:12:43.929Z,4.10
2019-03-18T21:15:15.388Z,4.70
2019-03-18T21:17:43.035Z,4.80
2019-03-18T21:20:12.086Z,5.53
2019-03-18T21:22:40.044Z,4.67
2019-03-18T21:25:08.309Z,4.97
2019-03-18T21:27:36.560Z,5.80
2019-03-18T21:30:09.007Z,4.37
2019-03-18T21:32:36.975Z,5.47
2019-03-18T21:35:05.739Z,4.65
2019-03-18T21:37:33.688Z,5.75
2019-03-18T21:40:01.792Z,5.25
2019-03-18T21:42:29.731Z,4.62
2019-03-18T21:44:57.698Z,4.85
2019-03-18T21:47:25.664Z,6.42
2019-03-18T21:49:53.652Z,6.25
2019-03-18T21:52:21.696Z,6.35
2019-03-18T21:54:49.668Z,6.05
2019-03-18T21:57:17.651Z,6.80
2019-03-18T21:59:45.683Z,6.08
2019-03-18T22:02:13.673Z,6.00
2019-03-18T22:04:41.648Z,6.75
2019-03-18T22:07:09.619Z,9.60
2019-03-18T22:09:37.602Z,6.67
2019-03-18T22:12:05.559Z,7.97
2019-03-18T22:14:33.527Z,8.38
2019-03-18T22:17:01.544Z,7.72
2019-03-18T22:19:30.417Z,8.38
2019-03-18T22:21:58.462Z,7.87
2019-03-18T22:24:26.439Z,7.08
2019-03-18T22:26:54.412Z,8.40
2019-03-18T22:29:22.426Z,8.93
2019-03-18T22:31:50.450Z,6.78
2019-03-18T22:34:18.444Z,8.45
2019-03-18T22:36:46.411Z,7.78
2019-03-18T22:39:14.389Z,8.95
2019-03-18T22:41:42.356Z,9.65
2019-03-18T22:44:10.348Z,10.60
2019-03-18T22:46:38.318Z,10.60
2019-03-18T22:49:06.283Z,10.50
2019-03-18T22:51:34.265Z,11.35
2019-03-18T22:54:02.233Z,14.10
2019-03-18T22:56:30.216Z,10.93
2019-03-18T22:58:58.186Z,12.23
2019-03-18T23:01:26.222Z,13.80
2019-03-18T23:03:54.204Z,13.10
2019-03-18T23:06:22.179Z,13.43
2019-03-18T23:08:50.147Z,15.00
2019-03-18T23:11:18.192Z,11.70
2019-03-18T23:13:46.164Z,11.53
2019-03-18T23:16:14.144Z,11.12
2019-03-18T23:18:42.104Z,10.70
2019-03-18T23:21:10.083Z,14.35
2019-03-18T23:23:38.064Z,11.97
2019-03-18T23:26:06.046Z,11.10
2019-03-18T23:28:34.037Z,13.70
2019-03-18T23:31:02.016Z,10.95
2019-03-18T23:33:29.999Z,12.07
2019-03-18T23:35:57.960Z,12.43
2019-03-18T23:38:25.928Z,12.35
2019-03-18T23:40:53.904Z,10.05
2019-03-18T23:43:21.890Z,10.58
2019-03-18T23:45:49.850Z,13.28
2019-03-18T23:48:17.816Z,11.95
2019-03-18T23:50:45.801Z,12.68
2019-03-18T23:53:13.784Z,11.08
2019-03-18T23:55:41.749Z,10.43
2019-03-18T23:58:09.714Z,11.60
